sensor_id;sensor_type;location;lat;lon;timestamp;P1;durP1;ratioP1;P2;durP2;ratioP2
52306;SDS011;38249;48.920;12.882;2022-11-15T00:01:26;4.07;;;3.00;;
52306;SDS011;38249;48.920;12.882;2022-11-15T00:03:53;3.83;;;3.13;;
52306;SDS011;38249;48.920;12.882;2022-11-15T00:06:19;3.38;;;2.90;;
52306;SDS011;38249;48.920;12.882;2022-11-15T00:08:46;3.75;;;2.80;;
52306;SDS011;38249;48.920;12.882;2022-11-15T00:11:12;4.20;;;2.67;;
52306;SDS011;38249;48.920;12.882;2022-11-15T00:13:40;3.83;;;2.90;;
52306;SDS011;38249;48.920;12.882;2022-11-15T00:16:08;3.65;;;2.63;;
52306;SDS011;38249;48.920;12.882;2022-11-15T00:18:35;4.88;;;3.38;;
52306;SDS011;38249;48.920;12.882;2022-11-15T00:21:03;4.65;;;2.75;;
52306;SDS011;38249;48.920;12.882;2022-11-15T00:23:32;4.05;;;2.55;;
52306;SDS011;38249;48.920;12.882;2022-11-15T00:25:59;3.78;;;2.75;;
52306;SDS011;38249;48.920;12.882;2022-11-15T00:28:26;3.78;;;2.80;;
52306;SDS011;38249;48.920;12.882;2022-11-15T00:30:59;3.47;;;2.80;;
52306;SDS011;38249;48.920;12.882;2022-11-15T00:33:27;6.18;;;2.72;;
52306;SDS011;38249;48.920;12.882;2022-11-15T00:35:53;3.35;;;3.05;;
52306;SDS011;38249;48.920;12.882;2022-11-15T00:38:25;3.45;;;2.65;;
52306;SDS011;38249;48.920;12.882;2022-11-15T00:40:57;3.70;;;2.75;;
52306;SDS011;38249;48.920;12.882;2022-11-15T00:43:23;3.58;;;2.63;;
52306;SDS011;38249;48.920;12.882;2022-11-15T00:45:50;3.55;;;2.85;;
52306;SDS011;38249;48.920;12.882;2022-11-15T00:48:18;4.35;;;3.10;;
52306;SDS011;38249;48.920;12.882;2022-11-15T00:50:44;4.07;;;2.90;;
52306;SDS011;38249;48.920;12.882;2022-11-15T00:53:11;3.85;;;3.20;;
52306;SDS011;38249;48.920;12.882;2022-11-15T00:55:38;4.40;;;2.78;;
52306;SDS011;38249;48.920;12.882;2022-11-15T00:58:04;3.20;;;2.80;;
52306;SDS011;38249;48.920;12.882;2022-11-15T01:00:31;3.67;;;2.85;;
52306;SDS011;38249;48.920;12.882;2022-11-15T01:02:58;3.55;;;2.58;;
52306;SDS011;38249;48.920;12.882;2022-11-15T01:05:27;3.47;;;2.70;;
52306;SDS011;38249;48.920;12.882;2022-11-15T01:07:54;4.25;;;2.75;;
52306;SDS011;38249;48.920;12.882;2022-11-15T01:10:21;4.10;;;3.05;;
52306;SDS011;38249;48.920;12.882;2022-11-15T01:12:49;3.72;;;2.70;;
52306;SDS011;38249;48.920;12.882;2022-11-15T01:15:16;4.75;;;2.53;;
52306;SDS011;38249;48.920;12.882;2022-11-15T01:17:42;4.28;;;3.05;;
52306;SDS011;38249;48.920;12.882;2022-11-15T01:20:09;4.82;;;3.10;;
52306;SDS011;38249;48.920;12.882;2022-11-15T01:22:38;3.28;;;2.65;;
52306;SDS011;38249;48.920;12.882;2022-11-15T01:25:05;2.58;;;2.33;;
52306;SDS011;38249;48.920;12.882;2022-11-15T01:27:31;2.70;;;2.45;;
52306;SDS011;38249;48.920;12.882;2022-11-15T01:29:58;3.88;;;2.90;;
52306;SDS011;38249;48.920;12.882;2022-11-15T01:32:24;3.70;;;2.35;;
52306;SDS011;38249;48.920;12.882;2022-11-15T01:34:51;4.40;;;2.45;;
52306;SDS011;38249;48.920;12.882;2022-11-15T01:37:18;5.80;;;3.15;;
52306;SDS011;38249;48.920;12.882;2022-11-15T01:39:45;3.47;;;2.85;;
52306;SDS011;38249;48.920;12.882;2022-11-15T01:42:12;3.67;;;2.50;;
52306;SDS011;38249;48.920;12.882;2022-11-15T01:44:43;3.70;;;2.70;;
52306;SDS011;38249;48.920;12.882;2022-11-15T01:47:13;5.28;;;3.70;;
52306;SDS011;38249;48.920;12.882;2022-11-15T01:49:45;3.83;;;3.35;;
52306;SDS011;38249;48.920;12.882;2022-11-15T01:52:19;6.70;;;2.88;;
52306;SDS011;38249;48.920;12.882;2022-11-15T01:54:50;4.22;;;3.00;;
52306;SDS011;38249;48.920;12.882;2022-11-15T01:57:19;3.35;;;2.90;;
52306;SDS011;38249;48.920;12.882;2022-11-15T01:59:46;3.28;;;2.67;;
52306;SDS011;38249;48.920;12.882;2022-11-15T02:02:13;2.83;;;2.45;;
52306;SDS011;38249;48.920;12.882;2022-11-15T02:04:41;3.13;;;2.50;;
52306;SDS011;38249;48.920;12.882;2022-11-15T02:07:09;3.00;;;2.50;;
52306;SDS011;38249;48.920;12.882;2022-11-15T02:13:01;2.92;;;2.60;;
52306;SDS011;38249;48.920;12.882;2022-11-15T02:15:30;3.35;;;2.60;;
52306;SDS011;38249;48.920;12.882;2022-11-15T02:18:07;3.22;;;2.60;;
52306;SDS011;38249;48.920;12.882;2022-11-15T02:20:47;3.03;;;2.75;;
52306;SDS011;38249;48.920;12.882;2022-11-15T02:23:31;6.15;;;3.08;;
52306;SDS011;38249;48.920;12.882;2022-11-15T02:26:24;3.47;;;2.80;;
52306;SDS011;38249;48.920;12.882;2022-11-15T02:29:13;5.32;;;4.43;;
52306;SDS011;38249;48.920;12.882;2022-11-15T02:31:51;5.18;;;3.88;;
52306;SDS011;38249;48.920;12.882;2022-11-15T02:34:26;5.60;;;4.40;;
52306;SDS011;38249;48.920;12.882;2022-11-15T02:37:02;3.25;;;2.95;;
52306;SDS011;38249;48.920;12.882;2022-11-15T02:39:34;5.20;;;2.60;;
52306;SDS011;38249;48.920;12.882;2022-11-15T02:42:09;3.67;;;2.58;;
52306;SDS011;38249;48.920;12.882;2022-11-15T02:44:54;3.60;;;2.40;;
52306;SDS011;38249;48.920;12.882;2022-11-15T02:47:25;3.40;;;2.90;;
52306;SDS011;38249;48.920;12.882;2022-11-15T02:49:57;4.47;;;2.83;;
52306;SDS011;38249;48.920;12.882;2022-11-15T02:52:27;3.90;;;2.85;;
52306;SDS011;38249;48.920;12.882;2022-11-15T02:54:54;7.03;;;4.30;;
52306;SDS011;38249;48.920;12.882;2022-11-15T02:57:25;5.88;;;4.45;;
52306;SDS011;38249;48.920;12.882;2022-11-15T03:00:03;7.80;;;4.53;;
52306;SDS011;38249;48.920;12.882;2022-11-15T03:02:39;4.70;;;3.80;;
52306;SDS011;38249;48.920;12.882;2022-11-15T03:05:15;5.25;;;3.70;;
52306;SDS011;38249;48.920;12.882;2022-11-15T03:10:19;7.45;;;3.63;;
52306;SDS011;38249;48.920;12.882;2022-11-15T03:12:52;5.25;;;4.30;;
52306;SDS011;38249;48.920;12.882;2022-11-15T03:15:23;4.35;;;3.20;;
52306;SDS011;38249;48.920;12.882;2022-11-15T03:17:58;7.70;;;3.72;;
52306;SDS011;38249;48.920;12.882;2022-11-15T03:20:27;3.83;;;3.17;;
52306;SDS011;38249;48.920;12.882;2022-11-15T03:22:55;4.00;;;3.30;;
52306;SDS011;38249;48.920;12.882;2022-11-15T03:25:27;5.57;;;3.05;;
52306;SDS011;38249;48.920;12.882;2022-11-15T03:27:56;4.43;;;2.95;;
52306;SDS011;38249;48.920;12.882;2022-11-15T03:30:27;7.78;;;4.07;;
52306;SDS011;38249;48.920;12.882;2022-11-15T03:32:58;4.22;;;3.22;;
52306;SDS011;38249;48.920;12.882;2022-11-15T03:35:29;4.63;;;4.03;;
52306;SDS011;38249;48.920;12.882;2022-11-15T03:38:01;4.68;;;3.65;;
52306;SDS011;38249;48.920;12.882;2022-11-15T03:40:35;5.65;;;4.38;;
52306;SDS011;38249;48.920;12.882;2022-11-15T03:43:06;5.25;;;3.78;;
52306;SDS011;38249;48.920;12.882;2022-11-15T03:45:41;6.85;;;4.30;;
52306;SDS011;38249;48.920;12.882;2022-11-15T03:48:14;4.95;;;3.17;;
52306;SDS011;38249;48.920;12.882;2022-11-15T03:50:44;5.85;;;3.78;;
52306;SDS011;38249;48.920;12.882;2022-11-15T03:53:12;5.20;;;3.72;;
52306;SDS011;38249;48.920;12.882;2022-11-15T03:55:39;5.00;;;3.92;;
52306;SDS011;38249;48.920;12.882;2022-11-15T03:58:06;4.63;;;3.33;;
52306;SDS011;38249;48.920;12.882;2022-11-15T04:00:33;5.00;;;3.67;;
52306;SDS011;38249;48.920;12.882;2022-11-15T04:02:59;4.10;;;3.28;;
52306;SDS011;38249;48.920;12.882;2022-11-15T04:05:27;3.67;;;3.10;;
52306;SDS011;38249;48.920;12.882;2022-11-15T04:07:54;4.38;;;3.45;;
52306;SDS011;38249;48.920;12.882;2022-11-15T04:10:20;4.63;;;3.50;;
52306;SDS011;38249;48.920;12.882;2022-11-15T04:12:47;4.30;;;3.28;;
52306;SDS011;38249;48.920;12.882;2022-11-15T04:15:15;5.47;;;3.80;;
52306;SDS011;38249;48.920;12.882;2022-11-15T04:17:43;5.05;;;3.38;;
52306;SDS011;38249;48.920;12.882;2022-11-15T04:20:12;6.30;;;3.70;;
52306;SDS011;38249;48.920;12.882;2022-11-15T04:23:03;5.15;;;3.35;;
52306;SDS011;38249;48.920;12.882;2022-11-15T04:25:50;4.68;;;3.78;;
52306;SDS011;38249;48.920;12.882;2022-11-15T04:28:19;7.53;;;5.32;;
52306;SDS011;38249;48.920;12.882;2022-11-15T04:30:50;5.30;;;3.75;;
52306;SDS011;38249;48.920;12.882;2022-11-15T04:33:16;4.32;;;3.58;;
52306;SDS011;38249;48.920;12.882;2022-11-15T04:35:43;5.47;;;3.78;;
52306;SDS011;38249;48.920;12.882;2022-11-15T04:38:31;4.97;;;3.47;;
52306;SDS011;38249;48.920;12.882;2022-11-15T04:40:57;4.68;;;3.38;;
52306;SDS011;38249;48.920;12.882;2022-11-15T04:43:23;4.55;;;3.50;;
52306;SDS011;38249;48.920;12.882;2022-11-15T04:45:50;5.10;;;3.47;;
52306;SDS011;38249;48.920;12.882;2022-11-15T04:48:17;5.15;;;3.85;;
52306;SDS011;38249;48.920;12.882;2022-11-15T04:50:44;4.68;;;3.67;;
52306;SDS011;38249;48.920;12.882;2022-11-15T04:53:10;4.82;;;3.92;;
52306;SDS011;38249;48.920;12.882;2022-11-15T04:55:38;5.25;;;3.75;;
52306;SDS011;38249;48.920;12.882;2022-11-15T04:58:05;6.78;;;4.40;;
52306;SDS011;38249;48.920;12.882;2022-11-15T05:00:32;5.30;;;3.40;;
52306;SDS011;38249;48.920;12.882;2022-11-15T05:02:58;4.30;;;3.67;;
52306;SDS011;38249;48.920;12.882;2022-11-15T05:05:43;5.55;;;3.85;;
52306;SDS011;38249;48.920;12.882;2022-11-15T05:08:10;7.28;;;3.90;;
52306;SDS011;38249;48.920;12.882;2022-11-15T05:10:36;6.10;;;4.15;;
52306;SDS011;38249;48.920;12.882;2022-11-15T05:13:04;5.60;;;3.92;;
52306;SDS011;38249;48.920;12.882;2022-11-15T05:15:31;6.40;;;4.80;;
52306;SDS011;38249;48.920;12.882;2022-11-15T05:17:58;7.05;;;4.05;;
52306;SDS011;38249;48.920;12.882;2022-11-15T05:20:25;6.63;;;4.75;;
52306;SDS011;38249;48.920;12.882;2022-11-15T05:22:52;5.25;;;3.85;;
52306;SDS011;38249;48.920;12.882;2022-11-15T05:25:19;6.57;;;4.00;;
52306;SDS011;38249;48.920;12.882;2022-11-15T05:27:45;5.25;;;4.28;;
52306;SDS011;38249;48.920;12.882;2022-11-15T05:30:14;6.95;;;4.47;;
52306;SDS011;38249;48.920;12.882;2022-11-15T05:32:42;7.72;;;4.70;;
52306;SDS011;38249;48.920;12.882;2022-11-15T05:35:09;7.05;;;4.97;;
52306;SDS011;38249;48.920;12.882;2022-11-15T05:37:41;5.93;;;3.70;;
52306;SDS011;38249;48.920;12.882;2022-11-15T05:40:08;5.50;;;4.50;;
52306;SDS011;38249;48.920;12.882;2022-11-15T05:42:35;4.88;;;3.78;;
52306;SDS011;38249;48.920;12.882;2022-11-15T05:45:02;7.63;;;4.55;;
52306;SDS011;38249;48.920;12.882;2022-11-15T05:47:33;6.43;;;4.40;;
52306;SDS011;38249;48.920;12.882;2022-11-15T05:50:02;10.48;;;6.78;;
52306;SDS011;38249;48.920;12.882;2022-11-15T05:52:30;12.02;;;8.50;;
52306;SDS011;38249;48.920;12.882;2022-11-15T05:54:59;9.50;;;7.32;;
52306;SDS011;38249;48.920;12.882;2022-11-15T05:57:27;10.07;;;7.32;;
52306;SDS011;38249;48.920;12.882;2022-11-15T05:59:54;23.17;;;16.08;;
52306;SDS011;38249;48.920;12.882;2022-11-15T06:02:21;12.57;;;7.55;;
52306;SDS011;38249;48.920;12.882;2022-11-15T06:04:49;8.98;;;6.45;;
52306;SDS011;38249;48.920;12.882;2022-11-15T06:07:15;15.48;;;10.57;;
52306;SDS011;38249;48.920;12.882;2022-11-15T06:09:42;11.68;;;8.80;;
52306;SDS011;38249;48.920;12.882;2022-11-15T06:12:09;8.25;;;6.85;;
52306;SDS011;38249;48.920;12.882;2022-11-15T06:14:35;9.75;;;6.95;;
52306;SDS011;38249;48.920;12.882;2022-11-15T06:17:02;10.13;;;7.50;;
52306;SDS011;38249;48.920;12.882;2022-11-15T06:19:29;9.52;;;6.78;;
52306;SDS011;38249;48.920;12.882;2022-11-15T06:21:59;12.18;;;8.98;;
52306;SDS011;38249;48.920;12.882;2022-11-15T06:24:26;12.65;;;8.70;;
52306;SDS011;38249;48.920;12.882;2022-11-15T06:26:53;8.02;;;6.22;;
52306;SDS011;38249;48.920;12.882;2022-11-15T06:29:19;9.10;;;6.85;;
52306;SDS011;38249;48.920;12.882;2022-11-15T06:31:46;10.02;;;6.65;;
52306;SDS011;38249;48.920;12.882;2022-11-15T06:34:12;10.73;;;7.00;;
52306;SDS011;38249;48.920;12.882;2022-11-15T06:36:39;10.93;;;7.90;;
52306;SDS011;38249;48.920;12.882;2022-11-15T06:39:07;15.55;;;11.95;;
52306;SDS011;38249;48.920;12.882;2022-11-15T06:41:34;18.42;;;9.75;;
52306;SDS011;38249;48.920;12.882;2022-11-15T06:44:01;10.82;;;7.55;;
52306;SDS011;38249;48.920;12.882;2022-11-15T06:46:28;9.55;;;6.35;;
52306;SDS011;38249;48.920;12.882;2022-11-15T06:48:55;8.25;;;6.35;;
52306;SDS011;38249;48.920;12.882;2022-11-15T06:51:22;8.15;;;5.40;;
52306;SDS011;38249;48.920;12.882;2022-11-15T06:53:48;7.95;;;5.75;;
52306;SDS011;38249;48.920;12.882;2022-11-15T06:56:16;9.25;;;5.72;;
52306;SDS011;38249;48.920;12.882;2022-11-15T06:58:43;6.80;;;5.43;;
52306;SDS011;38249;48.920;12.882;2022-11-15T07:01:10;12.77;;;11.13;;
52306;SDS011;38249;48.920;12.882;2022-11-15T07:03:39;34.38;;;20.35;;
52306;SDS011;38249;48.920;12.882;2022-11-15T07:06:07;33.20;;;19.95;;
52306;SDS011;38249;48.920;12.882;2022-11-15T07:08:34;27.92;;;15.43;;
52306;SDS011;38249;48.920;12.882;2022-11-15T07:11:02;20.02;;;12.60;;
52306;SDS011;38249;48.920;12.882;2022-11-15T07:13:34;12.88;;;9.20;;
52306;SDS011;38249;48.920;12.882;2022-11-15T07:16:02;13.88;;;8.80;;
52306;SDS011;38249;48.920;12.882;2022-11-15T07:18:30;10.80;;;7.82;;
52306;SDS011;38249;48.920;12.882;2022-11-15T07:20:59;11.25;;;7.65;;
52306;SDS011;38249;48.920;12.882;2022-11-15T07:23:27;14.30;;;10.45;;
52306;SDS011;38249;48.920;12.882;2022-11-15T07:25:53;20.08;;;14.18;;
52306;SDS011;38249;48.920;12.882;2022-11-15T07:28:22;16.13;;;12.18;;
52306;SDS011;38249;48.920;12.882;2022-11-15T07:30:50;18.63;;;12.80;;
52306;SDS011;38249;48.920;12.882;2022-11-15T07:33:17;20.25;;;12.90;;
52306;SDS011;38249;48.920;12.882;2022-11-15T07:35:44;15.60;;;12.05;;
52306;SDS011;38249;48.920;12.882;2022-11-15T07:38:14;14.82;;;10.18;;
52306;SDS011;38249;48.920;12.882;2022-11-15T07:40:44;17.02;;;13.07;;
52306;SDS011;38249;48.920;12.882;2022-11-15T07:43:11;9.25;;;6.90;;
52306;SDS011;38249;48.920;12.882;2022-11-15T07:45:40;26.25;;;15.40;;
52306;SDS011;38249;48.920;12.882;2022-11-15T07:48:09;15.50;;;10.00;;
52306;SDS011;38249;48.920;12.882;2022-11-15T07:50:36;12.45;;;8.65;;
52306;SDS011;38249;48.920;12.882;2022-11-15T07:53:07;12.43;;;7.93;;
52306;SDS011;38249;48.920;12.882;2022-11-15T07:55:35;10.45;;;6.85;;
52306;SDS011;38249;48.920;12.882;2022-11-15T07:58:01;10.15;;;6.68;;
52306;SDS011;38249;48.920;12.882;2022-11-15T08:00:29;10.23;;;6.15;;
52306;SDS011;38249;48.920;12.882;2022-11-15T08:03:03;8.55;;;6.88;;
52306;SDS011;38249;48.920;12.882;2022-11-15T08:07:59;9.13;;;7.28;;
52306;SDS011;38249;48.920;12.882;2022-11-15T08:10:25;11.02;;;6.88;;
52306;SDS011;38249;48.920;12.882;2022-11-15T08:12:56;8.50;;;6.95;;
52306;SDS011;38249;48.920;12.882;2022-11-15T08:15:24;11.05;;;7.85;;
52306;SDS011;38249;48.920;12.882;2022-11-15T08:17:55;10.07;;;7.93;;
52306;SDS011;38249;48.920;12.882;2022-11-15T08:20:22;10.95;;;8.27;;
52306;SDS011;38249;48.920;12.882;2022-11-15T08:22:50;13.57;;;6.85;;
52306;SDS011;38249;48.920;12.882;2022-11-15T08:25:17;6.97;;;6.10;;
52306;SDS011;38249;48.920;12.882;2022-11-15T08:27:43;7.82;;;6.22;;
52306;SDS011;38249;48.920;12.882;2022-11-15T08:30:11;7.93;;;6.93;;
52306;SDS011;38249;48.920;12.882;2022-11-15T08:32:38;8.13;;;7.25;;
52306;SDS011;38249;48.920;12.882;2022-11-15T08:35:05;9.65;;;7.55;;
52306;SDS011;38249;48.920;12.882;2022-11-15T08:37:33;9.43;;;7.90;;
52306;SDS011;38249;48.920;12.882;2022-11-15T08:40:01;11.07;;;7.63;;
52306;SDS011;38249;48.920;12.882;2022-11-15T08:42:28;11.77;;;8.48;;
52306;SDS011;38249;48.920;12.882;2022-11-15T08:44:55;10.25;;;6.35;;
52306;SDS011;38249;48.920;12.882;2022-11-15T08:47:21;8.02;;;5.97;;
52306;SDS011;38249;48.920;12.882;2022-11-15T08:49:49;6.93;;;5.88;;
52306;SDS011;38249;48.920;12.882;2022-11-15T08:52:15;7.75;;;6.32;;
52306;SDS011;38249;48.920;12.882;2022-11-15T08:54:42;7.80;;;5.57;;
52306;SDS011;38249;48.920;12.882;2022-11-15T08:57:10;6.97;;;5.65;;
52306;SDS011;38249;48.920;12.882;2022-11-15T08:59:38;8.15;;;6.60;;
52306;SDS011;38249;48.920;12.882;2022-11-15T09:02:05;8.15;;;6.30;;
52306;SDS011;38249;48.920;12.882;2022-11-15T09:04:32;8.07;;;6.40;;
52306;SDS011;38249;48.920;12.882;2022-11-15T09:06:59;7.75;;;6.18;;
52306;SDS011;38249;48.920;12.882;2022-11-15T09:09:25;8.57;;;6.00;;
52306;SDS011;38249;48.920;12.882;2022-11-15T09:11:52;9.50;;;8.50;;
52306;SDS011;38249;48.920;12.882;2022-11-15T09:14:20;9.50;;;6.25;;
52306;SDS011;38249;48.920;12.882;2022-11-15T09:16:47;6.95;;;6.13;;
52306;SDS011;38249;48.920;12.882;2022-11-15T09:19:13;6.63;;;6.03;;
52306;SDS011;38249;48.920;12.882;2022-11-15T09:21:40;6.05;;;5.45;;
52306;SDS011;38249;48.920;12.882;2022-11-15T09:24:08;7.80;;;6.20;;
52306;SDS011;38249;48.920;12.882;2022-11-15T09:26:34;8.05;;;6.13;;
52306;SDS011;38249;48.920;12.882;2022-11-15T09:29:01;6.68;;;5.60;;
52306;SDS011;38249;48.920;12.882;2022-11-15T09:31:29;7.63;;;5.93;;
52306;SDS011;38249;48.920;12.882;2022-11-15T09:33:56;6.88;;;5.75;;
52306;SDS011;38249;48.920;12.882;2022-11-15T09:36:22;6.88;;;5.30;;
52306;SDS011;38249;48.920;12.882;2022-11-15T09:38:49;7.28;;;6.32;;
52306;SDS011;38249;48.920;12.882;2022-11-15T09:41:24;8.25;;;6.30;;
52306;SDS011;38249;48.920;12.882;2022-11-15T09:44:03;8.38;;;6.35;;
52306;SDS011;38249;48.920;12.882;2022-11-15T09:46:48;7.15;;;6.22;;
52306;SDS011;38249;48.920;12.882;2022-11-15T09:49:25;6.72;;;5.97;;
52306;SDS011;38249;48.920;12.882;2022-11-15T09:51:52;10.57;;;8.27;;
52306;SDS011;38249;48.920;12.882;2022-11-15T09:54:26;9.88;;;5.82;;
52306;SDS011;38249;48.920;12.882;2022-11-15T09:56:55;9.40;;;6.88;;
52306;SDS011;38249;48.920;12.882;2022-11-15T09:59:35;11.90;;;8.38;;
52306;SDS011;38249;48.920;12.882;2022-11-15T10:02:16;6.53;;;5.32;;
52306;SDS011;38249;48.920;12.882;2022-11-15T10:04:53;6.05;;;5.45;;
52306;SDS011;38249;48.920;12.882;2022-11-15T10:07:21;16.90;;;11.15;;
52306;SDS011;38249;48.920;12.882;2022-11-15T10:09:53;5.57;;;4.82;;
52306;SDS011;38249;48.920;12.882;2022-11-15T10:12:24;7.05;;;5.20;;
52306;SDS011;38249;48.920;12.882;2022-11-15T10:14:55;6.50;;;5.47;;
52306;SDS011;38249;48.920;12.882;2022-11-15T10:17:36;7.63;;;5.45;;
52306;SDS011;38249;48.920;12.882;2022-11-15T10:20:17;6.63;;;5.40;;
52306;SDS011;38249;48.920;12.882;2022-11-15T10:22:47;6.72;;;5.30;;
52306;SDS011;38249;48.920;12.882;2022-11-15T10:25:17;8.45;;;7.65;;
52306;SDS011;38249;48.920;12.882;2022-11-15T10:27:47;8.77;;;7.32;;
52306;SDS011;38249;48.920;12.882;2022-11-15T10:30:19;5.90;;;5.37;;
52306;SDS011;38249;48.920;12.882;2022-11-15T10:32:47;7.18;;;4.90;;
52306;SDS011;38249;48.920;12.882;2022-11-15T10:35:16;6.00;;;5.07;;
52306;SDS011;38249;48.920;12.882;2022-11-15T10:37:44;5.97;;;4.90;;
52306;SDS011;38249;48.920;12.882;2022-11-15T10:40:14;6.10;;;5.30;;
52306;SDS011;38249;48.920;12.882;2022-11-15T10:42:43;7.78;;;5.32;;
52306;SDS011;38249;48.920;12.882;2022-11-15T10:45:22;6.18;;;5.20;;
52306;SDS011;38249;48.920;12.882;2022-11-15T10:47:51;7.05;;;5.78;;
52306;SDS011;38249;48.920;12.882;2022-11-15T10:50:26;6.88;;;5.63;;
52306;SDS011;38249;48.920;12.882;2022-11-15T10:52:54;7.07;;;5.82;;
52306;SDS011;38249;48.920;12.882;2022-11-15T10:55:23;6.95;;;5.68;;
52306;SDS011;38249;48.920;12.882;2022-11-15T10:57:54;6.72;;;5.78;;
52306;SDS011;38249;48.920;12.882;2022-11-15T11:00:27;8.05;;;7.25;;
52306;SDS011;38249;48.920;12.882;2022-11-15T11:05:26;6.43;;;5.80;;
52306;SDS011;38249;48.920;12.882;2022-11-15T11:07:57;8.65;;;5.75;;
52306;SDS011;38249;48.920;12.882;2022-11-15T11:10:25;8.43;;;5.50;;
52306;SDS011;38249;48.920;12.882;2022-11-15T11:12:51;5.95;;;5.13;;
52306;SDS011;38249;48.920;12.882;2022-11-15T11:15:18;6.57;;;5.25;;
52306;SDS011;38249;48.920;12.882;2022-11-15T11:17:57;5.82;;;5.22;;
52306;SDS011;38249;48.920;12.882;2022-11-15T11:20:36;6.07;;;5.38;;
52306;SDS011;38249;48.920;12.882;2022-11-15T11:23:14;7.55;;;5.65;;
52306;SDS011;38249;48.920;12.882;2022-11-15T11:25:50;6.80;;;5.18;;
52306;SDS011;38249;48.920;12.882;2022-11-15T11:28:32;5.88;;;5.22;;
52306;SDS011;38249;48.920;12.882;2022-11-15T11:31:13;5.35;;;4.80;;
52306;SDS011;38249;48.920;12.882;2022-11-15T11:33:54;6.50;;;5.87;;
52306;SDS011;38249;48.920;12.882;2022-11-15T11:36:32;9.43;;;6.82;;
52306;SDS011;38249;48.920;12.882;2022-11-15T11:39:11;5.38;;;4.57;;
52306;SDS011;38249;48.920;12.882;2022-11-15T11:41:50;6.00;;;4.68;;
52306;SDS011;38249;48.920;12.882;2022-11-15T11:44:27;9.60;;;7.07;;
52306;SDS011;38249;48.920;12.882;2022-11-15T11:47:01;6.18;;;5.55;;
52306;SDS011;38249;48.920;12.882;2022-11-15T11:49:34;5.28;;;4.78;;
52306;SDS011;38249;48.920;12.882;2022-11-15T11:52:09;4.82;;;4.43;;
52306;SDS011;38249;48.920;12.882;2022-11-15T11:54:42;6.07;;;4.20;;
52306;SDS011;38249;48.920;12.882;2022-11-15T11:57:16;5.97;;;5.38;;
52306;SDS011;38249;48.920;12.882;2022-11-15T11:59:53;6.78;;;4.57;;
52306;SDS011;38249;48.920;12.882;2022-11-15T12:02:26;5.32;;;4.75;;
52306;SDS011;38249;48.920;12.882;2022-11-15T12:05:01;7.13;;;5.18;;
52306;SDS011;38249;48.920;12.882;2022-11-15T12:07:34;6.00;;;5.15;;
52306;SDS011;38249;48.920;12.882;2022-11-15T12:10:04;5.25;;;4.65;;
52306;SDS011;38249;48.920;12.882;2022-11-15T12:12:43;8.02;;;5.55;;
52306;SDS011;38249;48.920;12.882;2022-11-15T12:15:16;7.85;;;5.30;;
52306;SDS011;38249;48.920;12.882;2022-11-15T12:17:46;8.32;;;5.55;;
52306;SDS011;38249;48.920;12.882;2022-11-15T12:20:16;5.78;;;5.18;;
52306;SDS011;38249;48.920;12.882;2022-11-15T12:22:47;6.50;;;5.30;;
52306;SDS011;38249;48.920;12.882;2022-11-15T12:25:19;5.38;;;4.88;;
52306;SDS011;38249;48.920;12.882;2022-11-15T12:27:52;7.72;;;5.28;;
52306;SDS011;38249;48.920;12.882;2022-11-15T12:30:22;6.60;;;5.88;;
52306;SDS011;38249;48.920;12.882;2022-11-15T12:32:52;5.80;;;5.18;;
52306;SDS011;38249;48.920;12.882;2022-11-15T12:35:25;6.15;;;5.45;;
52306;SDS011;38249;48.920;12.882;2022-11-15T12:37:55;5.60;;;5.00;;
52306;SDS011;38249;48.920;12.882;2022-11-15T12:40:23;6.72;;;4.88;;
52306;SDS011;38249;48.920;12.882;2022-11-15T12:46:10;7.15;;;4.80;;
52306;SDS011;38249;48.920;12.882;2022-11-15T12:57:29;7.85;;;5.57;;
52306;SDS011;38249;48.920;12.882;2022-11-15T13:00:04;5.35;;;4.78;;
52306;SDS011;38249;48.920;12.882;2022-11-15T13:02:46;5.88;;;4.30;;
52306;SDS011;38249;48.920;12.882;2022-11-15T13:20:17;5.22;;;4.38;;
52306;SDS011;38249;48.920;12.882;2022-11-15T13:22:49;5.53;;;4.70;;
52306;SDS011;38249;48.920;12.882;2022-11-15T13:25:16;5.50;;;4.45;;
52306;SDS011;38249;48.920;12.882;2022-11-15T13:27:49;5.28;;;4.72;;
52306;SDS011;38249;48.920;12.882;2022-11-15T13:30:19;5.15;;;4.65;;
52306;SDS011;38249;48.920;12.882;2022-11-15T13:32:47;7.38;;;4.35;;
52306;SDS011;38249;48.920;12.882;2022-11-15T13:35:18;5.65;;;4.60;;
52306;SDS011;38249;48.920;12.882;2022-11-15T13:37:47;6.28;;;4.47;;
52306;SDS011;38249;48.920;12.882;2022-11-15T13:40:24;5.78;;;4.63;;
52306;SDS011;38249;48.920;12.882;2022-11-15T13:42:56;6.53;;;4.38;;
52306;SDS011;38249;48.920;12.882;2022-11-15T13:45:23;6.65;;;4.53;;
52306;SDS011;38249;48.920;12.882;2022-11-15T13:47:52;7.00;;;4.82;;
52306;SDS011;38249;48.920;12.882;2022-11-15T13:50:20;6.32;;;4.72;;
52306;SDS011;38249;48.920;12.882;2022-11-15T13:52:51;6.05;;;5.35;;
52306;SDS011;38249;48.920;12.882;2022-11-15T13:55:20;6.75;;;4.82;;
52306;SDS011;38249;48.920;12.882;2022-11-15T13:57:49;6.75;;;4.75;;
52306;SDS011;38249;48.920;12.882;2022-11-15T14:00:28;5.70;;;4.63;;
52306;SDS011;38249;48.920;12.882;2022-11-15T14:03:04;6.13;;;4.43;;
52306;SDS011;38249;48.920;12.882;2022-11-15T14:05:33;5.38;;;4.70;;
52306;SDS011;38249;48.920;12.882;2022-11-15T14:08:01;5.68;;;4.90;;
52306;SDS011;38249;48.920;12.882;2022-11-15T14:10:31;5.65;;;4.55;;
52306;SDS011;38249;48.920;12.882;2022-11-15T14:12:59;6.15;;;5.15;;
52306;SDS011;38249;48.920;12.882;2022-11-15T14:15:30;5.97;;;4.38;;
52306;SDS011;38249;48.920;12.882;2022-11-15T14:17:58;5.90;;;4.50;;
52306;SDS011;38249;48.920;12.882;2022-11-15T14:20:29;5.28;;;4.65;;
52306;SDS011;38249;48.920;12.882;2022-11-15T14:22:58;7.95;;;5.20;;
52306;SDS011;38249;48.920;12.882;2022-11-15T14:25:26;6.95;;;4.72;;
52306;SDS011;38249;48.920;12.882;2022-11-15T14:28:10;6.65;;;5.30;;
52306;SDS011;38249;48.920;12.882;2022-11-15T14:30:41;6.50;;;4.90;;
52306;SDS011;38249;48.920;12.882;2022-11-15T14:33:18;8.88;;;5.93;;
52306;SDS011;38249;48.920;12.882;2022-11-15T14:35:46;9.50;;;5.97;;
52306;SDS011;38249;48.920;12.882;2022-11-15T14:38:13;9.60;;;6.15;;
52306;SDS011;38249;48.920;12.882;2022-11-15T14:40:40;8.85;;;7.05;;
52306;SDS011;38249;48.920;12.882;2022-11-15T14:43:07;11.75;;;7.47;;
52306;SDS011;38249;48.920;12.882;2022-11-15T14:45:35;11.93;;;7.43;;
52306;SDS011;38249;48.920;12.882;2022-11-15T14:48:03;9.13;;;7.70;;
52306;SDS011;38249;48.920;12.882;2022-11-15T14:50:30;11.63;;;6.25;;
52306;SDS011;38249;48.920;12.882;2022-11-15T14:52:58;8.07;;;5.88;;
52306;SDS011;38249;48.920;12.882;2022-11-15T14:55:26;10.52;;;7.47;;
52306;SDS011;38249;48.920;12.882;2022-11-15T14:57:53;8.45;;;7.00;;
52306;SDS011;38249;48.920;12.882;2022-11-15T15:00:20;10.65;;;6.10;;
52306;SDS011;38249;48.920;12.882;2022-11-15T15:02:48;8.25;;;6.53;;
52306;SDS011;38249;48.920;12.882;2022-11-15T15:05:19;6.18;;;5.05;;
52306;SDS011;38249;48.920;12.882;2022-11-15T15:07:47;5.97;;;4.65;;
52306;SDS011;38249;48.920;12.882;2022-11-15T15:10:14;6.97;;;3.85;;
52306;SDS011;38249;48.920;12.882;2022-11-15T15:12:41;7.57;;;5.15;;
52306;SDS011;38249;48.920;12.882;2022-11-15T15:15:11;6.32;;;4.18;;
52306;SDS011;38249;48.920;12.882;2022-11-15T15:17:40;8.00;;;4.10;;
52306;SDS011;38249;48.920;12.882;2022-11-15T15:20:07;6.22;;;4.60;;
52306;SDS011;38249;48.920;12.882;2022-11-15T15:22:35;11.95;;;4.28;;
52306;SDS011;38249;48.920;12.882;2022-11-15T15:25:07;6.32;;;4.15;;